createdAt,value
2019-01-24T00:00:31.197Z,82.62
2019-01-24T00:02:59.005Z,80.85
2019-01-24T00:05:26.482Z,81.23
2019-01-24T00:07:54.028Z,79.78
2019-01-24T00:10:21.803Z,79.63
2019-01-24T00:12:49.366Z,79.71
2019-01-24T00:15:16.884Z,79.45
2019-01-24T00:17:44.306Z,78.46
2019-01-24T00:20:12.165Z,78.13
2019-01-24T00:22:39.762Z,78.65
2019-01-24T00:25:07.948Z,78.32
2019-01-24T00:27:35.396Z,78.71
2019-01-24T00:30:03.689Z,79.21
2019-01-24T00:32:31.194Z,79.48
2019-01-24T00:34:58.654Z,79.75
2019-01-24T00:37:26.154Z,78.82
2019-01-24T00:39:53.869Z,79.93
2019-01-24T00:42:21.410Z,80.66
2019-01-24T00:44:48.874Z,81.91
2019-01-24T00:47:16.305Z,83.48
2019-01-24T00:49:43.851Z,85.07
2019-01-24T00:52:11.449Z,84.84
2019-01-24T00:54:38.935Z,85.58
2019-01-24T00:57:06.487Z,87.05
2019-01-24T00:59:34.006Z,86.94
2019-01-24T01:02:01.596Z,86.13
2019-01-24T01:04:29.848Z,86.41
2019-01-24T01:06:57.845Z,86.56
2019-01-24T01:09:25.489Z,86.93
2019-01-24T01:11:53.027Z,86.03
2019-01-24T01:14:20.436Z,84.98
2019-01-24T01:16:48.008Z,84.49
2019-01-24T01:19:15.552Z,84.86
2019-01-24T01:21:43.023Z,83.89
2019-01-24T01:24:10.610Z,83.60
2019-01-24T01:26:38.196Z,82.31
2019-01-24T01:29:05.660Z,80.96
2019-01-24T01:31:33.339Z,82.33
2019-01-24T01:34:00.801Z,82.98
2019-01-24T01:36:28.298Z,83.28
2019-01-24T01:38:55.965Z,83.06
2019-01-24T01:41:23.443Z,81.79
2019-01-24T01:43:51.016Z,81.66
2019-01-24T01:46:18.462Z,80.90
2019-01-24T01:48:46.027Z,79.19
2019-01-24T01:51:13.533Z,79.47
2019-01-24T01:53:41.126Z,80.95
2019-01-24T01:56:08.698Z,81.37
2019-01-24T01:58:36.206Z,81.64
2019-01-24T02:01:04.857Z,82.00
2019-01-24T02:03:32.315Z,82.34
2019-01-24T02:05:59.895Z,83.34
2019-01-24T02:08:27.401Z,83.81
2019-01-24T02:10:54.984Z,84.82
2019-01-24T02:13:22.447Z,83.14
2019-01-24T02:15:50.059Z,81.85
2019-01-24T02:18:17.597Z,81.11
2019-01-24T02:20:45.215Z,80.05
2019-01-24T02:23:12.889Z,79.93
2019-01-24T02:25:40.323Z,80.14
2019-01-24T02:28:07.783Z,79.60
2019-01-24T02:30:35.354Z,79.92
2019-01-24T02:33:02.996Z,80.62
2019-01-24T02:35:30.529Z,79.89
2019-01-24T02:37:58.068Z,79.96
2019-01-24T02:40:25.673Z,79.12
2019-01-24T02:42:53.156Z,79.17
2019-01-24T02:45:22.011Z,79.70
2019-01-24T02:47:49.943Z,79.74
2019-01-24T02:50:18.806Z,80.38
2019-01-24T02:52:46.469Z,79.42
2019-01-24T02:55:14.815Z,78.82
2019-01-24T02:57:42.823Z,79.34
2019-01-24T03:00:18.702Z,79.06
2019-01-24T03:02:46.330Z,77.80
2019-01-24T03:05:15.720Z,76.63
2019-01-24T03:07:43.423Z,76.74
2019-01-24T03:10:12.145Z,76.79
2019-01-24T03:12:39.905Z,77.26
2019-01-24T03:15:09.412Z,76.67
2019-01-24T03:17:36.783Z,76.17
2019-01-24T03:20:05.300Z,76.48
2019-01-24T03:22:32.741Z,76.19
2019-01-24T03:25:00.229Z,76.39
2019-01-24T03:27:27.952Z,76.12
2019-01-24T03:29:55.581Z,76.51
2019-01-24T03:32:23.524Z,76.46
2019-01-24T03:34:51.023Z,77.04
2019-01-24T03:37:18.725Z,76.84
2019-01-24T03:39:46.399Z,76.46
2019-01-24T03:42:13.889Z,76.73
2019-01-24T03:44:41.441Z,75.85
2019-01-24T03:47:08.897Z,75.39
2019-01-24T03:49:36.371Z,75.77
2019-01-24T03:52:03.904Z,76.77
2019-01-24T03:54:31.433Z,76.57
2019-01-24T03:56:59.285Z,76.82
2019-01-24T03:59:27.054Z,76.82
2019-01-24T04:01:54.690Z,76.66
2019-01-24T04:04:22.464Z,76.40
2019-01-24T04:06:50.061Z,76.09
2019-01-24T04:09:17.700Z,75.82
2019-01-24T04:11:45.232Z,75.19
2019-01-24T04:14:12.725Z,74.76
2019-01-24T04:16:40.462Z,74.65
2019-01-24T04:19:08.198Z,75.17
2019-01-24T04:21:35.811Z,75.20
2019-01-24T04:24:03.573Z,75.10
2019-01-24T04:26:31.048Z,74.42
2019-01-24T04:28:58.513Z,74.67
2019-01-24T04:31:26.015Z,74.61
2019-01-24T04:33:53.512Z,75.40
2019-01-24T04:36:21.227Z,75.55
2019-01-24T04:38:48.767Z,75.37
2019-01-24T04:41:16.408Z,74.99
2019-01-24T04:43:43.934Z,75.51
2019-01-24T04:46:11.576Z,76.86
2019-01-24T04:48:39.075Z,77.40
2019-01-24T04:51:06.598Z,77.49
2019-01-24T04:53:34.363Z,77.18
2019-01-24T04:56:01.978Z,77.38
2019-01-24T04:58:29.475Z,78.06
2019-01-24T05:00:57.235Z,78.68
2019-01-24T05:03:24.844Z,80.28
2019-01-24T05:05:52.522Z,80.36
2019-01-24T05:08:20.049Z,81.83
2019-01-24T05:10:47.418Z,82.10
2019-01-24T05:13:14.969Z,83.32
2019-01-24T05:15:42.498Z,84.55
2019-01-24T05:18:10.205Z,83.63
2019-01-24T05:20:37.767Z,84.72
2019-01-24T05:23:05.217Z,85.51
2019-01-24T05:25:32.712Z,86.39
2019-01-24T05:28:00.213Z,86.03
2019-01-24T05:30:28.481Z,85.97
2019-01-24T05:32:56.001Z,86.23
2019-01-24T05:35:23.639Z,86.56
2019-01-24T05:37:51.117Z,86.95
2019-01-24T05:40:18.555Z,86.53
2019-01-24T05:42:46.021Z,86.58
2019-01-24T05:45:13.998Z,86.39
2019-01-24T05:47:41.567Z,86.73
2019-01-24T05:50:10.097Z,88.07
2019-01-24T05:52:37.696Z,88.48
2019-01-24T05:55:06.074Z,89.21
2019-01-24T05:57:33.554Z,88.36
2019-01-24T06:00:01.742Z,87.88
2019-01-24T06:02:29.272Z,86.52
2019-01-24T06:04:56.869Z,86.70
2019-01-24T06:07:25.904Z,86.61
2019-01-24T06:09:53.489Z,85.24
2019-01-24T06:12:21.071Z,85.27
2019-01-24T06:14:48.523Z,86.24
2019-01-24T06:17:15.952Z,87.18
2019-01-24T06:19:43.337Z,86.46
2019-01-24T06:22:10.853Z,85.55
2019-01-24T06:24:38.424Z,85.18
2019-01-24T06:27:05.860Z,84.51
2019-01-24T06:29:33.282Z,84.02
2019-01-24T06:32:00.750Z,83.21
2019-01-24T06:34:28.279Z,83.19
2019-01-24T06:36:55.846Z,82.03
2019-01-24T06:39:23.354Z,82.62
2019-01-24T06:41:50.787Z,82.17
2019-01-24T06:44:18.224Z,82.41
2019-01-24T06:46:45.676Z,81.77
2019-01-24T06:49:13.264Z,81.86
2019-01-24T06:51:40.687Z,81.67
2019-01-24T06:54:08.360Z,81.89
2019-01-24T06:56:35.760Z,81.65
2019-01-24T06:59:03.503Z,82.26
2019-01-24T07:01:31.055Z,81.91
2019-01-24T07:03:58.587Z,82.55
2019-01-24T07:06:26.031Z,81.95
2019-01-24T07:08:53.645Z,81.59
2019-01-24T07:11:21.133Z,80.74
2019-01-24T07:13:48.671Z,80.27
2019-01-24T07:16:16.094Z,79.76
2019-01-24T07:18:43.577Z,80.25
2019-01-24T07:21:11.131Z,78.86
2019-01-24T07:23:38.604Z,78.47
2019-01-24T07:26:06.349Z,78.81
2019-01-24T07:28:36.438Z,79.33
2019-01-24T07:31:04.313Z,80.97
2019-01-24T07:33:31.763Z,82.46
2019-01-24T07:36:02.333Z,82.13
2019-01-24T07:38:28.628Z,81.64
2019-01-24T07:40:56.310Z,82.30
2019-01-24T07:43:23.905Z,83.16
2019-01-24T07:45:51.425Z,82.67
2019-01-24T07:48:18.856Z,82.41
2019-01-24T07:50:46.303Z,82.25
2019-01-24T07:53:15.478Z,82.36
2019-01-24T07:55:42.997Z,83.42
2019-01-24T07:58:10.579Z,84.60
2019-01-24T08:00:38.004Z,84.32
2019-01-24T08:03:06.015Z,84.42
2019-01-24T08:05:33.800Z,84.78
2019-01-24T08:08:01.531Z,85.63
2019-01-24T08:10:29.155Z,87.26
2019-01-24T08:12:56.634Z,87.23
2019-01-24T08:15:24.635Z,88.09
2019-01-24T08:17:52.240Z,88.62
2019-01-24T08:20:21.987Z,87.40
2019-01-24T08:22:49.670Z,88.45
2019-01-24T08:25:17.416Z,89.12
2019-01-24T08:27:44.921Z,90.24
2019-01-24T08:30:26.537Z,92.24
2019-01-24T08:32:54.297Z,92.46
2019-01-24T08:35:22.116Z,90.41
2019-01-24T08:37:49.509Z,88.99
2019-01-24T08:40:17.633Z,87.26
2019-01-24T08:42:45.164Z,87.63
2019-01-24T08:45:13.010Z,86.56
2019-01-24T08:47:40.535Z,85.34
2019-01-24T08:50:11.297Z,85.53
2019-01-24T08:52:38.722Z,84.79
2019-01-24T08:55:10.683Z,83.82
2019-01-24T08:57:38.262Z,84.22
2019-01-24T09:00:06.683Z,83.07
2019-01-24T09:02:34.126Z,81.92
2019-01-24T09:05:01.618Z,80.49
2019-01-24T09:07:29.283Z,80.37
2019-01-24T09:09:56.922Z,79.97
2019-01-24T09:12:30.228Z,80.05
2019-01-24T09:14:54.336Z,79.61
2019-01-24T09:17:22.042Z,79.19
2019-01-24T09:19:49.472Z,78.01
2019-01-24T09:22:16.954Z,77.97
2019-01-24T09:24:46.060Z,77.78
2019-01-24T09:27:13.499Z,77.33
2019-01-24T09:29:42.307Z,78.01
2019-01-24T09:32:12.322Z,77.69
2019-01-24T09:34:43.471Z,77.56
2019-01-24T09:37:14.253Z,76.98
2019-01-24T09:39:44.490Z,76.94
2019-01-24T09:42:12.162Z,76.94
2019-01-24T09:44:39.592Z,76.57
2019-01-24T09:47:07.233Z,75.92
2019-01-24T09:49:34.724Z,76.10
2019-01-24T09:52:02.157Z,75.82
2019-01-24T09:54:29.676Z,76.17
2019-01-24T09:56:57.400Z,76.93
2019-01-24T09:59:24.903Z,75.78
2019-01-24T10:01:52.569Z,75.60
2019-01-24T10:04:20.719Z,76.56
2019-01-24T10:06:49.109Z,77.45
2019-01-24T10:09:17.039Z,77.44
2019-01-24T10:11:46.086Z,77.66
2019-01-24T10:14:15.617Z,77.01
2019-01-24T10:16:43.451Z,77.58
2019-01-24T10:19:11.005Z,77.83
2019-01-24T10:21:38.594Z,78.05
2019-01-24T10:24:06.059Z,77.10
2019-01-24T10:26:33.545Z,75.59
2019-01-24T10:29:01.077Z,76.07
2019-01-24T10:31:29.711Z,74.08
2019-01-24T10:33:57.593Z,73.84
2019-01-24T10:36:25.144Z,72.58
2019-01-24T10:38:52.816Z,72.35
2019-01-24T10:41:20.530Z,71.20
2019-01-24T10:43:48.310Z,71.50
2019-01-24T10:46:15.841Z,70.38
2019-01-24T10:48:43.563Z,70.74
2019-01-24T10:51:11.200Z,68.71
2019-01-24T10:53:38.879Z,68.20
2019-01-24T10:56:07.272Z,68.01
2019-01-24T10:58:34.798Z,68.02
2019-01-24T11:01:03.015Z,67.07
2019-01-24T11:03:30.739Z,67.58
2019-01-24T11:05:58.337Z,67.11
2019-01-24T11:08:26.076Z,65.86
2019-01-24T11:10:53.727Z,67.88
2019-01-24T11:13:21.666Z,68.05
2019-01-24T11:15:49.182Z,68.15
2019-01-24T11:18:17.071Z,67.98
2019-01-24T11:20:44.742Z,68.71
2019-01-24T11:23:12.309Z,69.59
2019-01-24T11:25:40.112Z,70.40
2019-01-24T11:28:08.084Z,71.02
2019-01-24T11:30:36.050Z,71.12
2019-01-24T11:33:05.007Z,70.43
2019-01-24T11:35:34.267Z,70.73
2019-01-24T11:38:01.758Z,70.70
2019-01-24T11:40:29.564Z,72.04
2019-01-24T11:42:57.049Z,73.05
2019-01-24T11:45:27.426Z,75.41
2019-01-24T11:47:54.943Z,77.32
2019-01-24T11:50:22.682Z,75.79
2019-01-24T11:52:52.591Z,74.79
2019-01-24T11:55:25.176Z,75.98
2019-01-24T11:57:52.766Z,77.11
2019-01-24T12:00:23.574Z,76.38
2019-01-24T12:02:51.243Z,76.10
2019-01-24T12:05:19.063Z,77.28
2019-01-24T12:07:46.729Z,77.31
2019-01-24T12:10:17.714Z,75.67
2019-01-24T12:12:45.255Z,76.00
2019-01-24T12:15:14.623Z,77.01
2019-01-24T12:17:42.354Z,76.59
2019-01-24T12:20:13.693Z,78.34
2019-01-24T12:22:41.339Z,79.03
2019-01-24T12:25:09.420Z,79.21
2019-01-24T12:27:36.937Z,77.71
2019-01-24T12:30:07.711Z,77.43
2019-01-24T12:32:35.359Z,77.58
2019-01-24T12:35:03.426Z,77.59
2019-01-24T12:37:31.042Z,76.97
2019-01-24T12:39:58.885Z,77.28
2019-01-24T12:42:26.415Z,78.79
2019-01-24T12:44:54.117Z,77.91
2019-01-24T12:47:21.857Z,77.01
2019-01-24T12:49:49.467Z,77.30
2019-01-24T12:52:16.968Z,76.78
2019-01-24T12:54:44.723Z,78.38
2019-01-24T12:57:12.307Z,79.06
2019-01-24T12:59:40.018Z,78.30
2019-01-24T13:02:07.879Z,78.12
2019-01-24T13:04:35.397Z,78.45
2019-01-24T13:07:02.984Z,79.60
2019-01-24T13:09:30.809Z,82.45
2019-01-24T13:12:09.313Z,81.12
2019-01-24T13:14:37.040Z,81.37
2019-01-24T13:17:04.874Z,82.59
2019-01-24T13:19:32.425Z,82.59
2019-01-24T13:22:00.141Z,82.39
2019-01-24T13:24:28.672Z,82.94
2019-01-24T13:26:56.230Z,80.86
2019-01-24T13:29:23.799Z,80.26
2019-01-24T13:31:51.526Z,80.26
2019-01-24T13:34:19.162Z,80.69
2019-01-24T13:36:46.702Z,80.18
2019-01-24T13:39:14.274Z,80.84
2019-01-24T13:41:42.610Z,79.08
2019-01-24T13:44:10.747Z,79.30
2019-01-24T13:46:38.334Z,80.58
2019-01-24T13:49:05.939Z,79.25
2019-01-24T13:51:33.493Z,80.65
2019-01-24T13:54:01.246Z,79.88
2019-01-24T13:56:28.868Z,78.78
2019-01-24T13:58:56.529Z,78.45
2019-01-24T14:01:24.184Z,80.89
2019-01-24T14:03:59.104Z,82.05
2019-01-24T14:06:27.206Z,82.21
2019-01-24T14:08:54.859Z,83.67
2019-01-24T14:11:22.518Z,82.59
2019-01-24T14:13:50.224Z,82.94
2019-01-24T14:16:17.967Z,82.98
2019-01-24T14:18:45.466Z,82.40
2019-01-24T14:21:12.961Z,82.76
2019-01-24T14:23:40.718Z,81.02
2019-01-24T14:26:08.707Z,81.31
2019-01-24T14:28:36.473Z,84.02
2019-01-24T14:31:04.271Z,84.87
2019-01-24T14:33:32.611Z,87.10
2019-01-24T14:36:00.989Z,88.97
2019-01-24T14:38:29.945Z,89.37
2019-01-24T14:40:57.905Z,89.81
2019-01-24T14:43:26.443Z,91.37
2019-01-24T14:45:54.759Z,89.69
2019-01-24T14:48:24.038Z,89.21
2019-01-24T14:50:52.264Z,88.41
2019-01-24T14:53:20.208Z,88.79
2019-01-24T14:55:48.045Z,88.84
2019-01-24T14:58:15.691Z,88.61
2019-01-24T15:00:53.592Z,87.88
2019-01-24T15:03:21.457Z,87.27
2019-01-24T15:05:49.223Z,87.69
2019-01-24T15:08:17.028Z,88.56
2019-01-24T15:10:44.512Z,88.48
2019-01-24T15:13:12.207Z,88.36
2019-01-24T15:15:40.026Z,89.21
2019-01-24T15:18:07.769Z,89.57
2019-01-24T15:20:35.415Z,89.03
2019-01-24T15:23:03.377Z,86.36
2019-01-24T15:25:30.987Z,86.54
2019-01-24T15:27:58.937Z,85.56
2019-01-24T15:30:27.266Z,85.76
2019-01-24T15:32:55.343Z,84.70
2019-01-24T15:35:23.025Z,85.24
2019-01-24T15:37:54.575Z,84.94
2019-01-24T15:40:23.376Z,82.47
2019-01-24T15:42:51.103Z,82.77
2019-01-24T15:45:19.217Z,83.92
2019-01-24T15:47:47.180Z,83.16
2019-01-24T15:50:17.241Z,83.42
2019-01-24T15:52:46.352Z,82.81
2019-01-24T15:55:14.156Z,83.55
2019-01-24T15:57:41.967Z,82.82
2019-01-24T16:00:16.523Z,83.40
2019-01-24T16:02:44.495Z,82.90
2019-01-24T16:05:12.715Z,82.61
2019-01-24T16:07:40.287Z,81.49
2019-01-24T16:10:11.385Z,82.28
2019-01-24T16:12:39.396Z,81.89
2019-01-24T16:15:10.423Z,82.41
2019-01-24T16:17:37.974Z,81.54
2019-01-24T16:20:08.450Z,81.42
2019-01-24T16:22:36.053Z,80.10
2019-01-24T16:25:04.464Z,79.84
2019-01-24T16:27:32.413Z,81.80
2019-01-24T16:30:01.343Z,82.20
2019-01-24T16:32:29.241Z,81.31
2019-01-24T16:34:56.871Z,81.81
2019-01-24T16:37:24.578Z,81.53
2019-01-24T16:39:52.167Z,79.02
2019-01-24T16:42:19.702Z,80.54
2019-01-24T16:44:47.271Z,81.60
2019-01-24T16:47:14.918Z,80.57
2019-01-24T16:49:42.521Z,80.72
2019-01-24T16:52:10.095Z,79.55
2019-01-24T16:54:37.932Z,80.29
2019-01-24T16:57:05.535Z,81.03
2019-01-24T16:59:33.195Z,81.31
2019-01-24T17:02:00.840Z,81.11
2019-01-24T17:04:28.670Z,79.34
2019-01-24T17:06:56.586Z,79.59
2019-01-24T17:09:24.146Z,80.04
2019-01-24T17:11:51.950Z,80.92
2019-01-24T17:14:22.422Z,80.51
2019-01-24T17:16:49.566Z,78.06
2019-01-24T17:19:17.057Z,81.60
2019-01-24T17:21:44.563Z,80.38
2019-01-24T17:24:12.020Z,80.50
2019-01-24T17:26:40.014Z,82.91
2019-01-24T17:29:07.661Z,82.24
2019-01-24T17:31:35.277Z,82.61
2019-01-24T17:34:02.874Z,82.91
2019-01-24T17:36:30.485Z,84.09
2019-01-24T17:38:57.971Z,85.22
2019-01-24T17:41:26.377Z,85.75
2019-01-24T17:43:54.212Z,86.98
2019-01-24T17:46:21.832Z,87.97
2019-01-24T17:48:49.407Z,88.54
2019-01-24T17:51:16.985Z,88.87
2019-01-24T17:53:44.729Z,89.82
2019-01-24T17:56:12.485Z,90.20
2019-01-24T17:58:40.202Z,90.83
2019-01-24T18:01:07.908Z,92.42
2019-01-24T18:03:35.439Z,93.13
2019-01-24T18:06:03.786Z,90.62
2019-01-24T18:08:31.660Z,88.40
2019-01-24T18:10:59.250Z,87.28
2019-01-24T18:13:26.912Z,89.42
2019-01-24T18:15:54.896Z,89.67
2019-01-24T18:18:23.153Z,87.39
2019-01-24T18:20:51.654Z,86.43
2019-01-24T18:23:20.002Z,87.79
2019-01-24T18:25:48.048Z,88.20
2019-01-24T18:28:15.851Z,88.74
2019-01-24T18:30:43.950Z,90.43
2019-01-24T18:33:11.804Z,87.77
2019-01-24T18:35:39.503Z,87.28
2019-01-24T18:38:07.674Z,89.64
2019-01-24T18:40:35.600Z,89.13
2019-01-24T18:43:04.859Z,88.88
2019-01-24T18:45:35.809Z,86.67
2019-01-24T18:48:05.716Z,87.81
2019-01-24T18:50:34.896Z,88.52
2019-01-24T18:53:02.631Z,88.82
2019-01-24T18:55:30.191Z,88.74
2019-01-24T18:57:57.995Z,88.35
2019-01-24T19:00:33.145Z,89.42
2019-01-24T19:03:01.180Z,88.88
2019-01-24T19:05:29.195Z,88.76
2019-01-24T19:07:56.971Z,84.73
2019-01-24T19:10:24.850Z,82.48
2019-01-24T19:12:52.519Z,84.32
2019-01-24T19:15:20.336Z,83.28
2019-01-24T19:17:48.122Z,83.96
2019-01-24T19:20:16.625Z,87.12
2019-01-24T19:22:44.495Z,86.60
2019-01-24T19:25:12.338Z,87.81
2019-01-24T19:27:39.949Z,82.97
2019-01-24T19:30:21.035Z,83.94
2019-01-24T19:32:48.871Z,83.05
2019-01-24T19:35:16.420Z,83.55
2019-01-24T19:37:44.397Z,84.00
2019-01-24T19:40:14.054Z,85.38
2019-01-24T19:42:41.635Z,80.10
2019-01-24T19:45:12.057Z,81.20
2019-01-24T19:47:39.692Z,81.00
2019-01-24T19:50:10.089Z,85.15
2019-01-24T19:52:37.801Z,84.90
2019-01-24T19:55:05.955Z,83.84
2019-01-24T19:57:33.495Z,79.89
2019-01-24T20:00:01.451Z,81.68
2019-01-24T20:02:29.032Z,82.55
2019-01-24T20:04:56.538Z,83.07
2019-01-24T20:07:24.089Z,82.47
2019-01-24T20:09:51.772Z,85.06
2019-01-24T20:12:19.383Z,83.88
2019-01-24T20:14:47.094Z,79.63
2019-01-24T20:17:14.614Z,79.36
2019-01-24T20:19:42.186Z,80.79
2019-01-24T20:22:09.927Z,82.97
2019-01-24T20:24:37.473Z,79.94
2019-01-24T20:27:06.387Z,80.51
2019-01-24T20:29:34.082Z,81.83
2019-01-24T20:32:01.802Z,80.89
2019-01-24T20:34:29.378Z,81.77
2019-01-24T20:36:56.823Z,81.39
2019-01-24T20:39:24.329Z,81.12
2019-01-24T20:41:52.012Z,79.61
2019-01-24T20:44:19.742Z,81.55
2019-01-24T20:46:47.213Z,83.10
2019-01-24T20:49:14.705Z,83.03
2019-01-24T20:51:42.245Z,82.40
2019-01-24T20:54:09.817Z,81.90
2019-01-24T20:56:37.303Z,83.05
2019-01-24T20:59:04.884Z,81.75
2019-01-24T21:01:32.370Z,81.32
2019-01-24T21:04:00.195Z,81.79
2019-01-24T21:06:28.243Z,82.64
2019-01-24T21:08:55.950Z,82.24
2019-01-24T21:11:23.653Z,80.01
2019-01-24T21:13:51.350Z,81.19
2019-01-24T21:16:19.044Z,80.48
2019-01-24T21:18:46.704Z,79.73
2019-01-24T21:21:14.398Z,81.42
2019-01-24T21:23:41.904Z,83.62
2019-01-24T21:26:09.388Z,83.18
2019-01-24T21:28:37.173Z,80.89
2019-01-24T21:31:04.873Z,79.79
2019-01-24T21:33:32.473Z,81.05
2019-01-24T21:36:00.373Z,78.69
2019-01-24T21:38:28.712Z,79.65
2019-01-24T21:40:56.333Z,83.43
2019-01-24T21:43:23.779Z,79.41
2019-01-24T21:45:51.503Z,78.09
2019-01-24T21:48:19.902Z,78.79
2019-01-24T21:50:47.926Z,79.23
2019-01-24T21:53:16.217Z,80.88
2019-01-24T21:55:43.986Z,81.28
2019-01-24T21:58:11.596Z,82.27
2019-01-24T22:00:39.130Z,83.03
2019-01-24T22:03:06.938Z,82.73
2019-01-24T22:05:34.672Z,80.70
2019-01-24T22:08:02.542Z,80.15
2019-01-24T22:10:30.587Z,80.78
2019-01-24T22:12:59.044Z,84.09
2019-01-24T22:15:28.025Z,83.02
2019-01-24T22:17:56.113Z,81.60
2019-01-24T22:20:23.943Z,81.07
2019-01-24T22:22:51.620Z,82.65
2019-01-24T22:25:24.395Z,83.13
2019-01-24T22:27:52.177Z,82.77
2019-01-24T22:30:23.088Z,80.71
2019-01-24T22:32:50.523Z,80.16
2019-01-24T22:35:18.116Z,80.70
2019-01-24T22:37:45.808Z,81.21
2019-01-24T22:40:13.565Z,82.27
2019-01-24T22:42:41.177Z,81.91
2019-01-24T22:45:12.119Z,81.82
2019-01-24T22:47:39.655Z,82.56
2019-01-24T22:50:08.441Z,83.32
2019-01-24T22:52:36.026Z,82.61
2019-01-24T22:55:04.152Z,82.79
2019-01-24T22:57:31.568Z,83.55
2019-01-24T22:59:59.008Z,82.77
2019-01-24T23:02:29.040Z,83.51
2019-01-24T23:04:56.582Z,82.45
2019-01-24T23:07:24.039Z,82.97
2019-01-24T23:09:51.618Z,82.14
2019-01-24T23:12:19.148Z,82.02
2019-01-24T23:14:46.581Z,85.92
2019-01-24T23:17:14.092Z,88.70
2019-01-24T23:19:41.535Z,90.75
2019-01-24T23:22:09.020Z,87.84
2019-01-24T23:24:36.432Z,81.68
2019-01-24T23:27:04.271Z,81.66
2019-01-24T23:29:31.767Z,84.28
2019-01-24T23:31:59.235Z,81.63
2019-01-24T23:34:26.688Z,85.65
2019-01-24T23:36:54.175Z,84.73
2019-01-24T23:39:21.735Z,84.90
2019-01-24T23:41:49.274Z,82.61
2019-01-24T23:44:16.843Z,81.43
2019-01-24T23:46:44.408Z,80.04
2019-01-24T23:49:12.008Z,80.48
2019-01-24T23:51:39.628Z,81.46
2019-01-24T23:54:07.119Z,81.84
2019-01-24T23:56:34.660Z,85.08
2019-01-24T23:59:02.177Z,86.01
